sensor_id;sensor_type;location;lat;lon;timestamp;pressure;altitude;pressure_sealevel;temperature;humidity
59608;BME280;45426;44.726;10.390;2023-03-01T00:00:11;101038.22;;;4.24;100.00
59608;BME280;45426;44.726;10.390;2023-03-01T00:02:37;101040.88;;;4.29;100.00
59608;BME280;45426;44.726;10.390;2023-03-01T00:05:03;101029.38;;;4.13;100.00
59608;BME280;45426;44.726;10.390;2023-03-01T00:07:29;101030.13;;;4.34;100.00
59608;BME280;45426;44.726;10.390;2023-03-01T00:09:54;101030.72;;;4.16;100.00
59608;BME280;45426;44.726;10.390;2023-03-01T00:12:20;101023.09;;;4.43;100.00
59608;BME280;45426;44.726;10.390;2023-03-01T00:14:45;101018.84;;;4.32;100.00
59608;BME280;45426;44.726;10.390;2023-03-01T00:17:10;101021.59;;;4.06;100.00
59608;BME280;45426;44.726;10.390;2023-03-01T00:19:36;101011.31;;;4.19;100.00
59608;BME280;45426;44.726;10.390;2023-03-01T00:22:02;101016.53;;;3.95;100.00
59608;BME280;45426;44.726;10.390;2023-03-01T00:24:27;101018.59;;;4.18;100.00
59608;BME280;45426;44.726;10.390;2023-03-01T00:26:54;101019.72;;;4.02;100.00
59608;BME280;45426;44.726;10.390;2023-03-01T00:29:22;101021.88;;;4.00;100.00
59608;BME280;45426;44.726;10.390;2023-03-01T00:31:47;101021.38;;;3.82;100.00
59608;BME280;45426;44.726;10.390;2023-03-01T00:34:13;101022.19;;;3.93;100.00
59608;BME280;45426;44.726;10.390;2023-03-01T00:36:38;101017.34;;;3.90;100.00
59608;BME280;45426;44.726;10.390;2023-03-01T00:39:07;101020.25;;;4.09;100.00
59608;BME280;45426;44.726;10.390;2023-03-01T00:41:34;101010.06;;;4.06;100.00
59608;BME280;45426;44.726;10.390;2023-03-01T00:44:00;101012.78;;;3.80;100.00
59608;BME280;45426;44.726;10.390;2023-03-01T00:46:26;101019.91;;;4.26;100.00
59608;BME280;45426;44.726;10.390;2023-03-01T00:48:52;101016.44;;;4.25;100.00
59608;BME280;45426;44.726;10.390;2023-03-01T00:51:21;101010.69;;;4.47;100.00
59608;BME280;45426;44.726;10.390;2023-03-01T00:53:51;101009.22;;;4.71;100.00
59608;BME280;45426;44.726;10.390;2023-03-01T00:56:17;101006.34;;;4.52;100.00
59608;BME280;45426;44.726;10.390;2023-03-01T00:58:42;100996.09;;;4.59;100.00
59608;BME280;45426;44.726;10.390;2023-03-01T01:01:17;100989.09;;;4.58;100.00
59608;BME280;45426;44.726;10.390;2023-03-01T01:06:14;100975.00;;;4.71;100.00
59608;BME280;45426;44.726;10.390;2023-03-01T01:08:40;100974.63;;;4.88;100.00
59608;BME280;45426;44.726;10.390;2023-03-01T01:11:05;100965.94;;;5.01;100.00
59608;BME280;45426;44.726;10.390;2023-03-01T01:13:30;100963.53;;;5.00;100.00
59608;BME280;45426;44.726;10.390;2023-03-01T01:16:01;100969.56;;;5.16;100.00
59608;BME280;45426;44.726;10.390;2023-03-01T01:18:26;100961.41;;;4.92;100.00
59608;BME280;45426;44.726;10.390;2023-03-01T01:20:52;100945.44;;;5.05;100.00
59608;BME280;45426;44.726;10.390;2023-03-01T01:23:17;100947.09;;;5.31;100.00
59608;BME280;45426;44.726;10.390;2023-03-01T01:25:42;100936.50;;;5.10;100.00
59608;BME280;45426;44.726;10.390;2023-03-01T01:28:08;100929.41;;;5.19;100.00
59608;BME280;45426;44.726;10.390;2023-03-01T01:30:33;100928.56;;;4.95;100.00
59608;BME280;45426;44.726;10.390;2023-03-01T01:32:59;100926.53;;;5.11;100.00
59608;BME280;45426;44.726;10.390;2023-03-01T01:35:24;100924.50;;;5.27;100.00
59608;BME280;45426;44.726;10.390;2023-03-01T01:37:50;100914.94;;;5.10;100.00
59608;BME280;45426;44.726;10.390;2023-03-01T01:40:15;100917.97;;;5.33;100.00
59608;BME280;45426;44.726;10.390;2023-03-01T01:42:41;100917.94;;;5.38;100.00
59608;BME280;45426;44.726;10.390;2023-03-01T01:45:26;100913.34;;;5.09;100.00
59608;BME280;45426;44.726;10.390;2023-03-01T01:47:52;100916.22;;;5.18;100.00
59608;BME280;45426;44.726;10.390;2023-03-01T01:50:19;100918.00;;;5.57;100.00
59608;BME280;45426;44.726;10.390;2023-03-01T01:52:45;100919.63;;;5.29;100.00
59608;BME280;45426;44.726;10.390;2023-03-01T01:55:16;100914.44;;;5.08;100.00
59608;BME280;45426;44.726;10.390;2023-03-01T01:57:45;100905.75;;;5.40;100.00
59608;BME280;45426;44.726;10.390;2023-03-01T02:00:32;100910.59;;;5.43;100.00
59608;BME280;45426;44.726;10.390;2023-03-01T02:03:10;100904.16;;;5.10;100.00
59608;BME280;45426;44.726;10.390;2023-03-01T02:05:43;100900.66;;;5.15;100.00
59608;BME280;45426;44.726;10.390;2023-03-01T02:08:13;100902.88;;;5.37;100.00
59608;BME280;45426;44.726;10.390;2023-03-01T02:10:40;100896.38;;;5.09;100.00
59608;BME280;45426;44.726;10.390;2023-03-01T02:13:06;100893.41;;;5.10;100.00
59608;BME280;45426;44.726;10.390;2023-03-01T02:15:34;100896.28;;;4.90;100.00
59608;BME280;45426;44.726;10.390;2023-03-01T02:18:01;100895.56;;;5.08;100.00
59608;BME280;45426;44.726;10.390;2023-03-01T02:22:53;100885.59;;;4.79;100.00
59608;BME280;45426;44.726;10.390;2023-03-01T02:25:32;100877.44;;;4.90;100.00
59608;BME280;45426;44.726;10.390;2023-03-01T02:30:44;100873.28;;;5.02;100.00
59608;BME280;45426;44.726;10.390;2023-03-01T02:33:30;100861.75;;;5.50;100.00
59608;BME280;45426;44.726;10.390;2023-03-01T02:36:03;100861.84;;;5.40;100.00
59608;BME280;45426;44.726;10.390;2023-03-01T02:38:30;100862.13;;;4.85;100.00
59608;BME280;45426;44.726;10.390;2023-03-01T02:40:56;100864.47;;;4.62;100.00
59608;BME280;45426;44.726;10.390;2023-03-01T02:43:24;100860.56;;;4.79;100.00
59608;BME280;45426;44.726;10.390;2023-03-01T02:45:52;100859.13;;;5.16;100.00
59608;BME280;45426;44.726;10.390;2023-03-01T02:48:19;100847.56;;;5.15;100.00
59608;BME280;45426;44.726;10.390;2023-03-01T02:53:27;100839.97;;;5.22;100.00
59608;BME280;45426;44.726;10.390;2023-03-01T02:55:53;100839.59;;;5.05;100.00
59608;BME280;45426;44.726;10.390;2023-03-01T02:58:19;100834.06;;;5.20;100.00
59608;BME280;45426;44.726;10.390;2023-03-01T03:00:46;100845.84;;;5.00;100.00
59608;BME280;45426;44.726;10.390;2023-03-01T03:03:16;100844.28;;;4.94;100.00
59608;BME280;45426;44.726;10.390;2023-03-01T03:05:42;100836.41;;;5.27;100.00
59608;BME280;45426;44.726;10.390;2023-03-01T03:08:08;100828.66;;;5.20;100.00
59608;BME280;45426;44.726;10.390;2023-03-01T03:10:37;100828.44;;;5.41;100.00
59608;BME280;45426;44.726;10.390;2023-03-01T03:13:10;100822.91;;;5.03;100.00
59608;BME280;45426;44.726;10.390;2023-03-01T03:15:36;100826.03;;;5.15;100.00
59608;BME280;45426;44.726;10.390;2023-03-01T03:18:03;100821.16;;;5.17;100.00
59608;BME280;45426;44.726;10.390;2023-03-01T03:20:29;100804.44;;;4.91;100.00
59608;BME280;45426;44.726;10.390;2023-03-01T03:22:58;100819.06;;;4.85;100.00
59608;BME280;45426;44.726;10.390;2023-03-01T03:25:25;100811.53;;;5.11;100.00
59608;BME280;45426;44.726;10.390;2023-03-01T03:27:52;100811.13;;;5.23;100.00
59608;BME280;45426;44.726;10.390;2023-03-01T03:30:26;100809.53;;;5.22;100.00
59608;BME280;45426;44.726;10.390;2023-03-01T03:32:52;100820.75;;;5.05;100.00
59608;BME280;45426;44.726;10.390;2023-03-01T03:35:23;100814.00;;;5.32;100.00
59608;BME280;45426;44.726;10.390;2023-03-01T03:37:49;100819.56;;;5.16;100.00
59608;BME280;45426;44.726;10.390;2023-03-01T03:42:57;100808.59;;;5.32;100.00
59608;BME280;45426;44.726;10.390;2023-03-01T03:45:22;100803.09;;;5.42;100.00
59608;BME280;45426;44.726;10.390;2023-03-01T03:47:47;100801.75;;;4.91;100.00
59608;BME280;45426;44.726;10.390;2023-03-01T03:50:15;100801.25;;;4.89;100.00
59608;BME280;45426;44.726;10.390;2023-03-01T03:52:41;100815.50;;;4.60;100.00
59608;BME280;45426;44.726;10.390;2023-03-01T03:55:08;100817.53;;;4.39;100.00
59608;BME280;45426;44.726;10.390;2023-03-01T03:57:40;100814.75;;;4.55;100.00
59608;BME280;45426;44.726;10.390;2023-03-01T04:00:08;100813.72;;;5.09;100.00
59608;BME280;45426;44.726;10.390;2023-03-01T04:02:43;100812.50;;;4.62;100.00
59608;BME280;45426;44.726;10.390;2023-03-01T04:05:11;100803.25;;;5.02;100.00
59608;BME280;45426;44.726;10.390;2023-03-01T04:07:38;100805.25;;;4.92;100.00
59608;BME280;45426;44.726;10.390;2023-03-01T04:10:08;100795.22;;;4.97;100.00
59608;BME280;45426;44.726;10.390;2023-03-01T04:12:34;100800.75;;;5.11;100.00
59608;BME280;45426;44.726;10.390;2023-03-01T04:15:01;100792.53;;;5.21;100.00
59608;BME280;45426;44.726;10.390;2023-03-01T04:17:27;100793.59;;;5.25;100.00
59608;BME280;45426;44.726;10.390;2023-03-01T04:19:52;100798.22;;;4.96;100.00
59608;BME280;45426;44.726;10.390;2023-03-01T04:22:18;100783.31;;;4.79;100.00
59608;BME280;45426;44.726;10.390;2023-03-01T04:25:03;100787.81;;;5.13;100.00
59608;BME280;45426;44.726;10.390;2023-03-01T04:27:34;100789.25;;;5.30;100.00
59608;BME280;45426;44.726;10.390;2023-03-01T04:30:01;100789.09;;;5.16;100.00
59608;BME280;45426;44.726;10.390;2023-03-01T04:32:27;100789.38;;;5.14;100.00
59608;BME280;45426;44.726;10.390;2023-03-01T04:34:52;100790.03;;;5.30;100.00
59608;BME280;45426;44.726;10.390;2023-03-01T04:37:17;100802.41;;;4.48;100.00
59608;BME280;45426;44.726;10.390;2023-03-01T04:39:43;100788.28;;;4.91;100.00
59608;BME280;45426;44.726;10.390;2023-03-01T04:42:13;100787.44;;;5.44;100.00
59608;BME280;45426;44.726;10.390;2023-03-01T04:44:39;100786.78;;;4.80;100.00
59608;BME280;45426;44.726;10.390;2023-03-01T04:47:04;100788.72;;;5.03;100.00
59608;BME280;45426;44.726;10.390;2023-03-01T04:49:29;100794.22;;;4.64;100.00
59608;BME280;45426;44.726;10.390;2023-03-01T04:51:55;100790.59;;;5.03;100.00
59608;BME280;45426;44.726;10.390;2023-03-01T04:54:23;100785.16;;;5.08;100.00
59608;BME280;45426;44.726;10.390;2023-03-01T04:56:49;100793.81;;;5.29;100.00
59608;BME280;45426;44.726;10.390;2023-03-01T04:59:14;100792.69;;;5.11;100.00
59608;BME280;45426;44.726;10.390;2023-03-01T05:01:39;100789.97;;;5.11;100.00
59608;BME280;45426;44.726;10.390;2023-03-01T05:04:07;100792.09;;;4.90;100.00
59608;BME280;45426;44.726;10.390;2023-03-01T05:06:38;100799.09;;;5.15;100.00
59608;BME280;45426;44.726;10.390;2023-03-01T05:09:04;100790.81;;;5.31;100.00
59608;BME280;45426;44.726;10.390;2023-03-01T05:11:30;100792.59;;;4.63;100.00
59608;BME280;45426;44.726;10.390;2023-03-01T05:13:58;100792.59;;;4.92;100.00
59608;BME280;45426;44.726;10.390;2023-03-01T05:16:24;100789.69;;;5.37;100.00
59608;BME280;45426;44.726;10.390;2023-03-01T05:18:49;100793.69;;;5.39;100.00
59608;BME280;45426;44.726;10.390;2023-03-01T05:21:16;100790.13;;;5.44;100.00
59608;BME280;45426;44.726;10.390;2023-03-01T05:23:41;100785.78;;;5.48;100.00
59608;BME280;45426;44.726;10.390;2023-03-01T05:26:07;100783.91;;;5.24;100.00
59608;BME280;45426;44.726;10.390;2023-03-01T05:28:33;100783.69;;;5.64;100.00
59608;BME280;45426;44.726;10.390;2023-03-01T05:31:00;100785.97;;;5.52;100.00
59608;BME280;45426;44.726;10.390;2023-03-01T05:33:27;100779.16;;;5.59;100.00
59608;BME280;45426;44.726;10.390;2023-03-01T05:35:53;100779.19;;;5.35;100.00
59608;BME280;45426;44.726;10.390;2023-03-01T05:38:19;100790.25;;;5.34;100.00
59608;BME280;45426;44.726;10.390;2023-03-01T05:40:47;100791.66;;;5.07;100.00
59608;BME280;45426;44.726;10.390;2023-03-01T05:43:15;100783.38;;;5.22;100.00
59608;BME280;45426;44.726;10.390;2023-03-01T05:45:41;100781.75;;;4.73;100.00
59608;BME280;45426;44.726;10.390;2023-03-01T05:48:08;100788.09;;;5.12;100.00
59608;BME280;45426;44.726;10.390;2023-03-01T05:50:36;100781.16;;;5.30;100.00
59608;BME280;45426;44.726;10.390;2023-03-01T05:53:04;100787.56;;;5.34;100.00
59608;BME280;45426;44.726;10.390;2023-03-01T05:55:34;100785.66;;;5.34;100.00
59608;BME280;45426;44.726;10.390;2023-03-01T05:58:02;100790.94;;;5.44;100.00
59608;BME280;45426;44.726;10.390;2023-03-01T06:00:28;100789.97;;;5.35;100.00
59608;BME280;45426;44.726;10.390;2023-03-01T06:02:55;100790.59;;;5.51;100.00
59608;BME280;45426;44.726;10.390;2023-03-01T06:05:22;100786.09;;;5.22;100.00
59608;BME280;45426;44.726;10.390;2023-03-01T06:07:48;100783.44;;;5.41;100.00
59608;BME280;45426;44.726;10.390;2023-03-01T06:10:14;100787.97;;;4.98;100.00
59608;BME280;45426;44.726;10.390;2023-03-01T06:12:41;100798.63;;;5.08;100.00
59608;BME280;45426;44.726;10.390;2023-03-01T06:15:08;100788.31;;;5.15;100.00
59608;BME280;45426;44.726;10.390;2023-03-01T06:17:38;100791.09;;;5.53;100.00
59608;BME280;45426;44.726;10.390;2023-03-01T06:20:08;100797.06;;;5.02;100.00
59608;BME280;45426;44.726;10.390;2023-03-01T06:22:34;100801.78;;;5.15;100.00
59608;BME280;45426;44.726;10.390;2023-03-01T06:24:59;100798.47;;;5.67;100.00
59608;BME280;45426;44.726;10.390;2023-03-01T06:27:24;100796.88;;;5.66;100.00
59608;BME280;45426;44.726;10.390;2023-03-01T06:29:50;100800.06;;;5.49;100.00
59608;BME280;45426;44.726;10.390;2023-03-01T06:32:15;100787.75;;;5.42;100.00
59608;BME280;45426;44.726;10.390;2023-03-01T06:34:41;100803.06;;;4.70;100.00
59608;BME280;45426;44.726;10.390;2023-03-01T06:37:07;100797.91;;;4.73;100.00
59608;BME280;45426;44.726;10.390;2023-03-01T06:39:32;100804.16;;;4.63;100.00
59608;BME280;45426;44.726;10.390;2023-03-01T06:41:58;100805.84;;;4.89;100.00
59608;BME280;45426;44.726;10.390;2023-03-01T06:44:24;100808.25;;;4.61;100.00
59608;BME280;45426;44.726;10.390;2023-03-01T06:46:49;100809.06;;;4.56;100.00
59608;BME280;45426;44.726;10.390;2023-03-01T06:49:14;100807.69;;;4.64;100.00
59608;BME280;45426;44.726;10.390;2023-03-01T06:51:41;100808.41;;;4.40;100.00
59608;BME280;45426;44.726;10.390;2023-03-01T06:54:07;100805.88;;;4.20;100.00
59608;BME280;45426;44.726;10.390;2023-03-01T06:56:33;100816.84;;;4.28;100.00
59608;BME280;45426;44.726;10.390;2023-03-01T06:58:59;100816.66;;;4.15;100.00
59608;BME280;45426;44.726;10.390;2023-03-01T07:01:24;100811.88;;;4.75;100.00
59608;BME280;45426;44.726;10.390;2023-03-01T07:03:50;100812.56;;;5.15;100.00
59608;BME280;45426;44.726;10.390;2023-03-01T07:06:15;100820.00;;;4.70;100.00
59608;BME280;45426;44.726;10.390;2023-03-01T07:08:41;100819.16;;;4.40;100.00
59608;BME280;45426;44.726;10.390;2023-03-01T07:11:06;100814.47;;;4.85;100.00
59608;BME280;45426;44.726;10.390;2023-03-01T07:13:32;100824.16;;;4.86;100.00
59608;BME280;45426;44.726;10.390;2023-03-01T07:15:57;100811.69;;;5.20;100.00
59608;BME280;45426;44.726;10.390;2023-03-01T07:18:23;100819.34;;;4.83;100.00
59608;BME280;45426;44.726;10.390;2023-03-01T07:20:49;100824.06;;;4.97;100.00
59608;BME280;45426;44.726;10.390;2023-03-01T07:23:14;100817.31;;;5.23;100.00
59608;BME280;45426;44.726;10.390;2023-03-01T07:25:41;100820.16;;;4.50;100.00
59608;BME280;45426;44.726;10.390;2023-03-01T07:28:06;100827.84;;;4.66;100.00
59608;BME280;45426;44.726;10.390;2023-03-01T07:30:32;100817.41;;;4.89;100.00
59608;BME280;45426;44.726;10.390;2023-03-01T07:32:57;100813.28;;;4.97;100.00
59608;BME280;45426;44.726;10.390;2023-03-01T07:35:25;100823.50;;;4.36;100.00
59608;BME280;45426;44.726;10.390;2023-03-01T07:37:51;100822.41;;;4.37;100.00
59608;BME280;45426;44.726;10.390;2023-03-01T07:40:17;100824.25;;;4.76;100.00
59608;BME280;45426;44.726;10.390;2023-03-01T07:42:42;100828.38;;;4.29;100.00
59608;BME280;45426;44.726;10.390;2023-03-01T07:45:08;100825.84;;;4.08;100.00
59608;BME280;45426;44.726;10.390;2023-03-01T07:47:34;100826.56;;;4.59;100.00
59608;BME280;45426;44.726;10.390;2023-03-01T07:50:00;100816.13;;;4.81;100.00
59608;BME280;45426;44.726;10.390;2023-03-01T07:52:26;100813.09;;;4.59;100.00
59608;BME280;45426;44.726;10.390;2023-03-01T07:54:52;100802.00;;;4.95;100.00
59608;BME280;45426;44.726;10.390;2023-03-01T07:57:17;100794.59;;;4.81;100.00
59608;BME280;45426;44.726;10.390;2023-03-01T07:59:42;100798.22;;;4.96;100.00
59608;BME280;45426;44.726;10.390;2023-03-01T08:02:09;100793.31;;;4.74;100.00
59608;BME280;45426;44.726;10.390;2023-03-01T08:04:34;100794.56;;;4.86;100.00
59608;BME280;45426;44.726;10.390;2023-03-01T08:07:00;100794.47;;;4.92;100.00
59608;BME280;45426;44.726;10.390;2023-03-01T08:09:25;100801.16;;;4.70;100.00
59608;BME280;45426;44.726;10.390;2023-03-01T08:11:51;100789.22;;;5.05;100.00
59608;BME280;45426;44.726;10.390;2023-03-01T08:14:16;100808.09;;;4.76;100.00
59608;BME280;45426;44.726;10.390;2023-03-01T08:16:42;100797.25;;;4.86;100.00
59608;BME280;45426;44.726;10.390;2023-03-01T08:19:11;100804.16;;;4.63;100.00
59608;BME280;45426;44.726;10.390;2023-03-01T08:21:37;100803.69;;;4.22;100.00
59608;BME280;45426;44.726;10.390;2023-03-01T08:24:05;100798.09;;;4.53;100.00
59608;BME280;45426;44.726;10.390;2023-03-01T08:26:31;100783.06;;;5.05;100.00
59608;BME280;45426;44.726;10.390;2023-03-01T08:28:57;100787.97;;;4.98;100.00
59608;BME280;45426;44.726;10.390;2023-03-01T08:31:29;100780.94;;;4.73;100.00
59608;BME280;45426;44.726;10.390;2023-03-01T08:33:58;100785.47;;;4.14;100.00
59608;BME280;45426;44.726;10.390;2023-03-01T08:36:26;100786.50;;;4.52;100.00
59608;BME280;45426;44.726;10.390;2023-03-01T08:38:52;100783.16;;;4.65;100.00
59608;BME280;45426;44.726;10.390;2023-03-01T08:41:17;100783.28;;;4.50;100.00
59608;BME280;45426;44.726;10.390;2023-03-01T08:43:43;100783.53;;;4.54;100.00
59608;BME280;45426;44.726;10.390;2023-03-01T08:46:09;100779.28;;;4.47;100.00
59608;BME280;45426;44.726;10.390;2023-03-01T08:48:34;100754.59;;;4.70;100.00
59608;BME280;45426;44.726;10.390;2023-03-01T08:51:08;100762.97;;;4.68;100.00
59608;BME280;45426;44.726;10.390;2023-03-01T08:53:34;100753.34;;;4.86;100.00
59608;BME280;45426;44.726;10.390;2023-03-01T08:56:00;100746.47;;;4.99;100.00
59608;BME280;45426;44.726;10.390;2023-03-01T08:58:28;100742.94;;;4.79;100.00
59608;BME280;45426;44.726;10.390;2023-03-01T09:00:53;100741.41;;;5.40;100.00
59608;BME280;45426;44.726;10.390;2023-03-01T09:03:18;100745.50;;;5.57;100.00
59608;BME280;45426;44.726;10.390;2023-03-01T09:05:44;100744.25;;;5.49;100.00
59608;BME280;45426;44.726;10.390;2023-03-01T09:08:11;100746.72;;;5.02;100.00
59608;BME280;45426;44.726;10.390;2023-03-01T09:10:38;100741.91;;;4.75;100.00
59608;BME280;45426;44.726;10.390;2023-03-01T09:13:04;100744.88;;;4.74;100.00
59608;BME280;45426;44.726;10.390;2023-03-01T09:15:29;100731.00;;;5.10;100.00
59608;BME280;45426;44.726;10.390;2023-03-01T09:17:55;100729.72;;;5.07;100.00
59608;BME280;45426;44.726;10.390;2023-03-01T09:20:20;100735.00;;;4.88;100.00
59608;BME280;45426;44.726;10.390;2023-03-01T09:22:45;100734.91;;;4.74;100.00
59608;BME280;45426;44.726;10.390;2023-03-01T09:25:11;100732.16;;;5.03;100.00
59608;BME280;45426;44.726;10.390;2023-03-01T09:27:36;100736.72;;;5.03;100.00
59608;BME280;45426;44.726;10.390;2023-03-01T09:30:02;100722.97;;;5.29;100.00
59608;BME280;45426;44.726;10.390;2023-03-01T09:32:30;100729.06;;;4.91;100.00
59608;BME280;45426;44.726;10.390;2023-03-01T09:34:56;100719.69;;;5.13;100.00
59608;BME280;45426;44.726;10.390;2023-03-01T09:37:30;100723.09;;;5.18;100.00
59608;BME280;45426;44.726;10.390;2023-03-01T09:39:56;100729.13;;;4.86;100.00
59608;BME280;45426;44.726;10.390;2023-03-01T09:42:22;100726.34;;;5.39;100.00
59608;BME280;45426;44.726;10.390;2023-03-01T09:44:48;100710.22;;;5.72;100.00
59608;BME280;45426;44.726;10.390;2023-03-01T09:47:23;100699.16;;;4.93;100.00
59608;BME280;45426;44.726;10.390;2023-03-01T09:50:09;100713.03;;;5.48;100.00
59608;BME280;45426;44.726;10.390;2023-03-01T09:52:40;100703.91;;;5.01;100.00
59608;BME280;45426;44.726;10.390;2023-03-01T09:55:24;100701.38;;;5.10;100.00
59608;BME280;45426;44.726;10.390;2023-03-01T09:58:04;100707.41;;;5.63;100.00
59608;BME280;45426;44.726;10.390;2023-03-01T10:00:42;100700.13;;;5.45;100.00
59608;BME280;45426;44.726;10.390;2023-03-01T10:03:34;100699.97;;;5.36;100.00
59608;BME280;45426;44.726;10.390;2023-03-01T10:06:09;100706.34;;;5.21;100.00
59608;BME280;45426;44.726;10.390;2023-03-01T10:11:22;100687.63;;;5.11;100.00
59608;BME280;45426;44.726;10.390;2023-03-01T10:13:58;100682.69;;;5.18;100.00
59608;BME280;45426;44.726;10.390;2023-03-01T10:16:43;100667.78;;;5.26;100.00
59608;BME280;45426;44.726;10.390;2023-03-01T10:19:24;100666.31;;;5.34;100.00
59608;BME280;45426;44.726;10.390;2023-03-01T10:21:50;100667.00;;;5.25;100.00
59608;BME280;45426;44.726;10.390;2023-03-01T10:24:18;100666.63;;;5.32;100.00
59608;BME280;45426;44.726;10.390;2023-03-01T10:26:57;100667.00;;;5.25;100.00
59608;BME280;45426;44.726;10.390;2023-03-01T10:29:31;100665.59;;;5.47;100.00
59608;BME280;45426;44.726;10.390;2023-03-01T10:32:00;100659.88;;;5.87;100.00
59608;BME280;45426;44.726;10.390;2023-03-01T10:34:32;100650.13;;;5.72;100.00
59608;BME280;45426;44.726;10.390;2023-03-01T10:37:10;100642.13;;;5.48;100.00
59608;BME280;45426;44.726;10.390;2023-03-01T10:39:36;100642.94;;;5.67;100.00
59608;BME280;45426;44.726;10.390;2023-03-01T10:42:05;100646.72;;;5.66;100.00
59608;BME280;45426;44.726;10.390;2023-03-01T10:44:49;100648.88;;;5.83;100.00
59608;BME280;45426;44.726;10.390;2023-03-01T10:47:23;100646.50;;;5.43;100.00
59608;BME280;45426;44.726;10.390;2023-03-01T10:49:58;100636.91;;;6.08;100.00
59608;BME280;45426;44.726;10.390;2023-03-01T10:55:04;100641.50;;;5.37;100.00
59608;BME280;45426;44.726;10.390;2023-03-01T10:57:48;100639.69;;;5.84;100.00
59608;BME280;45426;44.726;10.390;2023-03-01T11:00:22;100629.72;;;5.84;100.00
59608;BME280;45426;44.726;10.390;2023-03-01T11:05:25;100623.06;;;5.96;100.00
59608;BME280;45426;44.726;10.390;2023-03-01T11:10:32;100613.75;;;6.63;100.00
59608;BME280;45426;44.726;10.390;2023-03-01T11:13:08;100608.63;;;5.73;100.00
59608;BME280;45426;44.726;10.390;2023-03-01T11:15:37;100610.34;;;6.29;100.00
59608;BME280;45426;44.726;10.390;2023-03-01T11:18:03;100607.25;;;5.89;100.00
59608;BME280;45426;44.726;10.390;2023-03-01T11:20:31;100603.13;;;6.25;100.00
59608;BME280;45426;44.726;10.390;2023-03-01T11:23:12;100603.91;;;5.97;100.00
59608;BME280;45426;44.726;10.390;2023-03-01T11:25:41;100604.31;;;6.05;100.00
59608;BME280;45426;44.726;10.390;2023-03-01T11:28:12;100613.13;;;6.10;100.00
59608;BME280;45426;44.726;10.390;2023-03-01T11:30:44;100618.25;;;6.39;100.00
59608;BME280;45426;44.726;10.390;2023-03-01T11:36:00;100617.53;;;6.20;100.00
59608;BME280;45426;44.726;10.390;2023-03-01T11:38:29;100627.75;;;6.23;100.00
59608;BME280;45426;44.726;10.390;2023-03-01T11:41:06;100629.03;;;5.93;100.00
59608;BME280;45426;44.726;10.390;2023-03-01T11:56:58;100645.13;;;5.46;100.00
59608;BME280;45426;44.726;10.390;2023-03-01T12:09:55;100641.91;;;5.44;100.00
59608;BME280;45426;44.726;10.390;2023-03-01T12:26:35;100633.63;;;5.40;100.00
59608;BME280;45426;44.726;10.390;2023-03-01T12:37:16;100645.59;;;4.91;100.00
59608;BME280;45426;44.726;10.390;2023-03-01T12:50:42;100643.63;;;4.54;100.00
59608;BME280;45426;44.726;10.390;2023-03-01T12:53:30;100639.38;;;4.96;100.00
59608;BME280;45426;44.726;10.390;2023-03-01T12:56:02;100646.25;;;4.59;100.00
59608;BME280;45426;44.726;10.390;2023-03-01T13:01:28;100637.25;;;4.69;100.00
59608;BME280;45426;44.726;10.390;2023-03-01T13:04:27;100623.28;;;5.10;100.00
59608;BME280;45426;44.726;10.390;2023-03-01T13:13:00;100615.59;;;5.22;100.00
59608;BME280;45426;44.726;10.390;2023-03-01T13:15:29;100622.00;;;5.26;100.00
59608;BME280;45426;44.726;10.390;2023-03-01T13:17:59;100611.34;;;5.35;100.00
59608;BME280;45426;44.726;10.390;2023-03-01T13:28:46;100577.06;;;5.21;100.00
59608;BME280;45426;44.726;10.390;2023-03-01T13:33:42;100574.53;;;5.11;100.00
59608;BME280;45426;44.726;10.390;2023-03-01T13:36:09;100581.50;;;5.12;100.00
59608;BME280;45426;44.726;10.390;2023-03-01T13:41:10;100580.25;;;5.23;100.00
59608;BME280;45426;44.726;10.390;2023-03-01T13:43:38;100588.03;;;5.25;100.00
59608;BME280;45426;44.726;10.390;2023-03-01T13:46:22;100613.25;;;5.15;100.00
59608;BME280;45426;44.726;10.390;2023-03-01T13:48:54;100628.44;;;4.09;100.00
59608;BME280;45426;44.726;10.390;2023-03-01T13:51:25;100636.53;;;4.09;100.00
59608;BME280;45426;44.726;10.390;2023-03-01T13:53:51;100637.69;;;4.57;100.00
59608;BME280;45426;44.726;10.390;2023-03-01T13:56:24;100630.44;;;4.52;100.00
59608;BME280;45426;44.726;10.390;2023-03-01T13:59:26;100630.88;;;4.11;100.00
59608;BME280;45426;44.726;10.390;2023-03-01T14:01:56;100627.13;;;4.36;100.00
59608;BME280;45426;44.726;10.390;2023-03-01T14:06:51;100618.41;;;5.31;100.00
59608;BME280;45426;44.726;10.390;2023-03-01T14:09:21;100619.16;;;4.74;100.00
59608;BME280;45426;44.726;10.390;2023-03-01T14:14:30;100625.25;;;5.04;100.00
59608;BME280;45426;44.726;10.390;2023-03-01T14:19:40;100628.69;;;4.42;100.00
59608;BME280;45426;44.726;10.390;2023-03-01T14:22:22;100620.66;;;4.37;100.00
59608;BME280;45426;44.726;10.390;2023-03-01T14:24:57;100621.75;;;4.36;100.00
59608;BME280;45426;44.726;10.390;2023-03-01T14:27:26;100620.94;;;4.36;100.00
59608;BME280;45426;44.726;10.390;2023-03-01T14:30:00;100620.63;;;4.85;100.00
59608;BME280;45426;44.726;10.390;2023-03-01T14:32:28;100618.25;;;4.12;100.00
59608;BME280;45426;44.726;10.390;2023-03-01T14:34:54;100620.84;;;4.70;100.00
59608;BME280;45426;44.726;10.390;2023-03-01T14:39:52;100614.31;;;4.95;100.00
59608;BME280;45426;44.726;10.390;2023-03-01T14:42:19;100612.22;;;4.92;100.00